Time;durP1;ratioP1;P1;durP2;ratioP2;P2;SDS_P1;SDS_P2;PMS_P1;PMS_P2;Temp;Humidity;BMP_temperature;BMP_pressure;BME280_temperature;BME280_humidity;BME280_pressure;Samples;Min_cycle;Max_cycle;Signal;HPM_P1;HPM_P2
2023/05/06 00:01:14;;;;;;;;;;;;;;;0.96;54.31;100303.09;5098791;27;19934;-74
2023/05/06 00:03:40;;;;;;;;;;;;;;;0.84;54.60;100283.13;5079959;27;19931;-75
2023/05/06 00:06:07;;;;;;;;;;;;;;;0.89;55.16;100304.91;5099038;27;20373;-75
2023/05/06 00:08:33;;;;;;;;;;;;;;;0.88;55.71;100303.25;5098920;27;19923;-75
2023/05/06 00:11:00;;;;;;;;;;;;;;;0.88;56.12;100297.03;5080874;27;19924;-74
2023/05/06 00:13:26;;;;;;;;;;;;;;;0.84;56.40;100315.44;5108315;27;20220;-74
2023/05/06 00:15:52;;;;;;;;;;;;;;;0.81;57.04;100318.53;5091711;27;19965;-76
2023/05/06 00:18:21;;;;;;;;;;;;;;;0.75;57.05;100311.22;5097759;27;19927;-76
2023/05/06 00:20:47;;;;;;;;;;;;;;;0.68;57.71;100314.72;5097384;27;20333;-76
2023/05/06 00:23:13;;;;;;;;;;;;;;;0.63;57.89;100322.56;5060244;28;20436;-76
2023/05/06 00:25:39;;;;;;;;;;;;;;;0.58;57.97;100313.41;5112769;27;19958;-76
2023/05/06 00:28:06;;;;;;;;;;;;;;;0.52;58.56;100306.94;5116892;27;19923;-76
2023/05/06 00:30:32;;;;;;;;;;;;;;;0.50;58.80;100315.22;5112046;27;20398;-76
2023/05/06 00:32:58;;;;;;;;;;;;;;;0.52;58.94;100326.59;5079743;28;20147;-76
2023/05/06 00:35:24;;;;;;;;;;;;;;;0.49;58.79;100321.63;5075058;28;19948;-76
2023/05/06 00:37:54;;;;;;;;;;;;;;;0.40;59.10;100320.13;5078804;28;19970;-76
2023/05/06 00:40:21;;;;;;;;;;;;;;;0.33;59.57;100322.75;5054435;28;20298;-76
2023/05/06 00:42:46;;;;;;;;;;;;;;;0.33;59.93;100314.69;5069765;28;19973;-76
2023/05/06 00:45:13;;;;;;;;;;;;;;;0.33;60.13;100309.28;5062349;28;19924;-76
2023/05/06 00:47:40;;;;;;;;;;;;;;;0.28;60.40;100319.78;5066598;28;20035;-76
2023/05/06 00:50:06;;;;;;;;;;;;;;;0.22;60.97;100326.78;5081910;28;20318;-76
2023/05/06 00:52:33;;;;;;;;;;;;;;;0.14;60.93;100330.44;5074193;28;19931;-77
2023/05/06 00:54:59;;;;;;;;;;;;;;;0.07;61.40;100326.84;5072470;28;20329;-77
2023/05/06 00:57:25;;;;;;;;;;;;;;;0.07;61.70;100324.16;5057026;28;19931;-76
2023/05/06 00:59:51;;;;;;;;;;;;;;;0.07;61.73;100324.16;5074612;28;19928;-75
2023/05/06 01:02:18;;;;;;;;;;;;;;;0.06;61.97;100322.50;5070914;28;19923;-75
2023/05/06 01:04:44;;;;;;;;;;;;;;;0.05;62.09;100322.69;5061931;28;20054;-75
2023/05/06 01:07:15;;;;;;;;;;;;;;;-0.01;62.35;100332.34;5073294;28;19924;-75
2023/05/06 01:09:46;;;;;;;;;;;;;;;-0.03;62.62;100332.56;5070711;28;20026;-75
2023/05/06 01:12:16;;;;;;;;;;;;;;;-0.06;62.78;100334.78;5068139;28;19931;-74
2023/05/06 01:14:46;;;;;;;;;;;;;;;-0.08;63.09;100331.47;5070034;28;20363;-74
2023/05/06 01:17:12;;;;;;;;;;;;;;;-0.11;62.99;100338.03;5066197;28;20024;-75
2023/05/06 01:19:45;;;;;;;;;;;;;;;-0.18;63.45;100337.16;5069926;28;19932;-76
2023/05/06 01:22:12;;;;;;;;;;;;;;;-0.21;63.72;100337.56;5079588;28;19927;-75
2023/05/06 01:24:40;;;;;;;;;;;;;;;-0.26;63.94;100331.88;5074339;28;19977;-76
2023/05/06 01:27:06;;;;;;;;;;;;;;;-0.26;64.08;100330.06;5073567;28;19924;-77
2023/05/06 01:29:32;;;;;;;;;;;;;;;-0.23;64.16;100340.41;5077010;28;19931;-77
2023/05/06 01:32:05;;;;;;;;;;;;;;;-0.21;64.71;100334.84;5084341;27;20264;-76
2023/05/06 01:34:36;;;;;;;;;;;;;;;-0.21;64.98;100340.22;5113639;27;19930;-76
2023/05/06 01:37:05;;;;;;;;;;;;;;;-0.25;64.99;100336.25;5086004;27;19923;-75
2023/05/06 01:39:32;;;;;;;;;;;;;;;-0.27;65.24;100332.91;5071907;27;20401;-75
2023/05/06 01:42:00;;;;;;;;;;;;;;;-0.28;65.50;100332.09;5076527;27;20374;-75
2023/05/06 01:44:28;;;;;;;;;;;;;;;-0.28;65.38;100334.78;5085533;28;20401;-75
2023/05/06 01:46:55;;;;;;;;;;;;;;;-0.32;65.69;100323.56;5097883;27;20668;-74
2023/05/06 01:49:22;;;;;;;;;;;;;;;-0.32;66.11;100328.94;5092341;27;20302;-76
2023/05/06 01:51:49;;;;;;;;;;;;;;;-0.34;66.05;100331.00;5091601;28;19930;-75
2023/05/06 01:54:15;;;;;;;;;;;;;;;-0.31;66.25;100337.84;5081130;28;19923;-75
2023/05/06 01:56:41;;;;;;;;;;;;;;;-0.36;66.22;100337.56;5098012;28;19923;-75
2023/05/06 01:59:08;;;;;;;;;;;;;;;-0.39;66.18;100335.28;5097194;27;19924;-74
2023/05/06 02:01:34;;;;;;;;;;;;;;;-0.51;66.33;100325.00;5110276;27;20410;-74
2023/05/06 02:04:00;;;;;;;;;;;;;;;-0.40;66.53;100338.97;5106516;28;19924;-75
2023/05/06 02:06:27;;;;;;;;;;;;;;;-0.41;66.53;100343.50;5091020;28;19923;-75
2023/05/06 02:08:53;;;;;;;;;;;;;;;-0.43;66.64;100342.88;5089784;28;19968;-75
2023/05/06 02:11:22;;;;;;;;;;;;;;;-0.43;66.90;100338.34;5094661;28;19924;-78
2023/05/06 02:13:50;;;;;;;;;;;;;;;-0.42;66.98;100347.22;5090681;27;19976;-76
2023/05/06 02:16:19;;;;;;;;;;;;;;;-0.41;67.10;100343.50;5125148;27;19924;-76
2023/05/06 02:18:46;;;;;;;;;;;;;;;-0.40;67.29;100347.03;5093706;28;19931;-76
2023/05/06 02:21:12;;;;;;;;;;;;;;;-0.40;67.47;100352.41;5082743;27;20369;-76
2023/05/06 02:23:38;;;;;;;;;;;;;;;-0.44;67.51;100355.50;5114970;27;20285;-76
2023/05/06 02:26:04;;;;;;;;;;;;;;;-0.39;67.79;100351.41;5099951;27;20347;-76
2023/05/06 02:28:32;;;;;;;;;;;;;;;-0.35;67.80;100347.31;5094345;27;20436;-76
2023/05/06 02:30:58;;;;;;;;;;;;;;;-0.33;67.69;100350.63;5082124;27;19967;-76
2023/05/06 02:33:25;;;;;;;;;;;;;;;-0.28;67.71;100353.59;5094529;28;19947;-76
2023/05/06 02:35:51;;;;;;;;;;;;;;;-0.24;67.68;100359.41;5093883;28;20019;-76
2023/05/06 02:38:17;;;;;;;;;;;;;;;-0.18;67.61;100364.84;5099955;27;20021;-76
2023/05/06 02:40:43;;;;;;;;;;;;;;;-0.07;67.18;100363.56;5082045;27;19923;-76
2023/05/06 02:43:09;;;;;;;;;;;;;;;0.00;66.84;100366.31;5090854;27;19924;-76
2023/05/06 02:45:35;;;;;;;;;;;;;;;0.02;66.70;100366.09;5096994;28;19924;-76
2023/05/06 02:48:01;;;;;;;;;;;;;;;0.02;66.72;100366.94;5117432;27;19942;-76
2023/05/06 02:50:29;;;;;;;;;;;;;;;0.03;66.62;100365.91;5114512;27;19927;-76
2023/05/06 02:52:54;;;;;;;;;;;;;;;0.05;66.58;100366.56;5098466;27;20318;-75
2023/05/06 02:55:20;;;;;;;;;;;;;;;0.05;66.60;100369.25;5097127;28;19938;-76
2023/05/06 02:57:46;;;;;;;;;;;;;;;0.14;66.58;100370.78;5115870;27;20025;-75
2023/05/06 03:00:14;;;;;;;;;;;;;;;0.26;65.99;100370.25;5116480;27;20341;-78
2023/05/06 03:02:40;;;;;;;;;;;;;;;0.31;65.56;100378.59;5112955;27;19923;-74
2023/05/06 03:05:06;;;;;;;;;;;;;;;0.34;65.52;100377.38;5093370;27;19923;-74
2023/05/06 03:07:35;;;;;;;;;;;;;;;0.38;65.19;100382.19;5068376;28;19945;-74
2023/05/06 03:10:01;;;;;;;;;;;;;;;0.39;65.14;100386.53;5120980;27;20031;-75
2023/05/06 03:12:30;;;;;;;;;;;;;;;0.38;64.87;100381.34;5078558;27;19992;-75
2023/05/06 03:14:56;;;;;;;;;;;;;;;0.35;65.04;100382.56;5094399;27;20271;-75
2023/05/06 03:17:22;;;;;;;;;;;;;;;0.40;64.81;100382.81;5124573;27;19980;-75
2023/05/06 03:19:49;;;;;;;;;;;;;;;0.47;64.49;100387.41;5087003;28;20400;-77
2023/05/06 03:22:16;;;;;;;;;;;;;;;0.51;64.07;100388.72;5101597;27;19929;-75
2023/05/06 03:24:45;;;;;;;;;;;;;;;0.49;64.02;100390.78;5090259;27;19923;-75
2023/05/06 03:27:11;;;;;;;;;;;;;;;0.48;64.19;100379.16;5122844;27;20344;-74
2023/05/06 03:29:37;;;;;;;;;;;;;;;0.41;64.11;100400.63;5084286;27;19927;-77
2023/05/06 03:32:05;;;;;;;;;;;;;;;0.42;64.14;100393.41;5117469;27;19923;-77
2023/05/06 03:34:37;;;;;;;;;;;;;;;0.50;64.13;100404.00;5115386;27;19923;-76
2023/05/06 03:37:04;;;;;;;;;;;;;;;0.63;63.68;100399.78;5114188;27;20467;-76
2023/05/06 03:39:30;;;;;;;;;;;;;;;0.67;63.36;100398.34;5082991;27;19923;-76
2023/05/06 03:41:58;;;;;;;;;;;;;;;0.64;63.05;100402.28;5096868;27;20490;-77
2023/05/06 03:44:25;;;;;;;;;;;;;;;0.56;62.95;100402.41;5115586;27;19950;-77
2023/05/06 03:46:50;;;;;;;;;;;;;;;0.57;62.65;100396.00;5116718;27;19930;-77
2023/05/06 03:49:17;;;;;;;;;;;;;;;0.68;62.66;100395.47;5106627;27;19923;-75
2023/05/06 03:51:45;;;;;;;;;;;;;;;0.83;61.99;100390.00;5100969;27;20325;-75
2023/05/06 03:54:11;;;;;;;;;;;;;;;0.86;61.76;100399.53;5094550;27;19923;-75
2023/05/06 03:56:38;;;;;;;;;;;;;;;0.88;61.38;100385.91;5096864;27;19927;-75
2023/05/06 03:59:06;;;;;;;;;;;;;;;0.98;60.86;100383.66;5071199;27;20305;-75
2023/05/06 04:01:32;;;;;;;;;;;;;;;1.16;60.58;100395.78;5096765;28;19923;-76
2023/05/06 04:03:58;;;;;;;;;;;;;;;1.30;60.01;100402.94;5097801;27;20634;-76
2023/05/06 04:06:25;;;;;;;;;;;;;;;1.31;59.57;100398.38;5082647;27;19928;-76
2023/05/06 04:08:51;;;;;;;;;;;;;;;1.29;59.42;100397.75;5098282;27;19935;-76
2023/05/06 04:11:18;;;;;;;;;;;;;;;1.36;59.20;100409.38;5104389;27;20356;-76
2023/05/06 04:13:45;;;;;;;;;;;;;;;1.50;58.85;100404.91;5093073;28;19928;-74
2023/05/06 04:16:16;;;;;;;;;;;;;;;1.55;58.26;100419.44;5095833;27;19928;-74
2023/05/06 04:18:44;;;;;;;;;;;;;;;1.65;58.13;100408.31;5078070;27;19930;-76
2023/05/06 04:21:13;;;;;;;;;;;;;;;1.66;57.67;100404.56;5103012;28;20273;-76
2023/05/06 04:23:43;;;;;;;;;;;;;;;1.68;57.63;100412.44;5091484;27;19930;-76
2023/05/06 04:26:11;;;;;;;;;;;;;;;1.69;57.52;100416.81;5121111;27;19924;-76
2023/05/06 04:28:40;;;;;;;;;;;;;;;1.70;57.10;100415.75;5100476;28;19923;-76
2023/05/06 04:31:07;;;;;;;;;;;;;;;1.64;57.11;100417.44;5099889;27;20317;-76
2023/05/06 04:33:43;;;;;;;;;;;;;;;1.57;56.77;100415.72;5086385;28;19923;-76
2023/05/06 04:36:13;;;;;;;;;;;;;;;1.47;57.04;100414.22;5098735;28;19927;-76
2023/05/06 04:38:46;;;;;;;;;;;;;;;1.61;56.67;100422.38;5094630;28;20009;-76
2023/05/06 04:41:13;;;;;;;;;;;;;;;1.84;55.97;100416.66;5096217;27;19980;-76
2023/05/06 04:43:38;;;;;;;;;;;;;;;1.90;55.48;100423.13;5085267;28;19923;-74
2023/05/06 04:46:11;;;;;;;;;;;;;;;2.02;55.30;100426.88;5117178;27;20010;-75
2023/05/06 04:48:40;;;;;;;;;;;;;;;2.06;55.19;100432.72;5088382;27;19952;-76
2023/05/06 04:51:08;;;;;;;;;;;;;;;2.10;54.82;100418.59;5086726;27;19965;-75
2023/05/06 04:53:35;;;;;;;;;;;;;;;2.23;54.57;100425.91;5095013;27;20375;-75
2023/05/06 04:56:01;;;;;;;;;;;;;;;2.36;54.37;100427.81;5087624;28;19947;-75
2023/05/06 04:58:28;;;;;;;;;;;;;;;2.38;53.76;100431.13;5119504;27;20187;-76
2023/05/06 05:00:55;;;;;;;;;;;;;;;2.40;53.91;100426.34;5076525;27;19923;-76
2023/05/06 05:03:22;;;;;;;;;;;;;;;2.50;53.64;100427.84;5091778;27;19923;-75
2023/05/06 05:05:48;;;;;;;;;;;;;;;2.57;53.34;100433.22;5118354;27;19962;-75
2023/05/06 05:08:19;;;;;;;;;;;;;;;2.55;53.06;100430.75;5122807;27;19930;-75
2023/05/06 05:10:45;;;;;;;;;;;;;;;2.53;52.60;100433.63;5089723;27;19927;-75
2023/05/06 05:13:15;;;;;;;;;;;;;;;2.46;52.85;100437.38;5106544;27;19927;-75
2023/05/06 05:15:43;;;;;;;;;;;;;;;2.58;52.65;100438.41;5123398;27;19931;-75
2023/05/06 05:18:10;;;;;;;;;;;;;;;2.69;52.21;100432.41;5087039;27;19930;-75
2023/05/06 05:20:36;;;;;;;;;;;;;;;2.68;52.10;100433.47;5112576;27;19923;-76
2023/05/06 05:23:03;;;;;;;;;;;;;;;2.81;51.79;100431.78;5093962;27;19930;-75
2023/05/06 05:25:31;;;;;;;;;;;;;;;2.90;51.38;100435.94;5090162;27;20314;-75
2023/05/06 05:27:57;;;;;;;;;;;;;;;3.15;51.09;100440.72;4759744;27;10000454;-76
2023/05/06 05:30:23;;;;;;;;;;;;;;;3.12;50.57;100433.00;5088636;27;19923;-75
2023/05/06 05:32:49;;;;;;;;;;;;;;;3.01;50.90;100433.66;5063398;28;20338;-76
2023/05/06 05:35:16;;;;;;;;;;;;;;;2.99;51.24;100428.44;5075345;28;19931;-75
2023/05/06 05:37:43;;;;;;;;;;;;;;;2.93;51.08;100438.22;5081425;28;20387;-75
2023/05/06 05:40:09;;;;;;;;;;;;;;;3.01;50.87;100433.66;5083298;28;19952;-75
2023/05/06 05:42:39;;;;;;;;;;;;;;;3.17;50.72;100426.97;5076015;28;19999;-74
2023/05/06 05:45:12;;;;;;;;;;;;;;;3.25;50.49;100437.56;5065746;28;19995;-74
2023/05/06 05:47:38;;;;;;;;;;;;;;;3.42;50.14;100443.34;5068744;28;19924;-75
2023/05/06 05:50:05;;;;;;;;;;;;;;;3.60;49.60;100447.28;5060368;28;19938;-75
2023/05/06 05:52:31;;;;;;;;;;;;;;;3.83;48.64;100444.91;5079448;28;20014;-74
2023/05/06 05:54:58;;;;;;;;;;;;;;;3.96;48.26;100441.28;5072719;28;20305;-74
2023/05/06 05:57:24;;;;;;;;;;;;;;;4.02;48.06;100450.44;5075356;28;20035;-74
2023/05/06 05:59:52;;;;;;;;;;;;;;;3.93;48.11;100439.03;5074571;28;20416;-74
2023/05/06 06:02:18;;;;;;;;;;;;;;;3.80;48.09;100444.47;5075064;28;19934;-74
2023/05/06 06:04:44;;;;;;;;;;;;;;;3.76;48.12;100438.69;5075705;28;20031;-74
2023/05/06 06:07:10;;;;;;;;;;;;;;;3.90;48.02;100452.13;5066776;28;20018;-75
2023/05/06 06:09:40;;;;;;;;;;;;;;;4.30;47.16;100453.84;5068692;28;20413;-74
2023/05/06 06:12:07;;;;;;;;;;;;;;;4.59;46.63;100449.69;5076762;28;19924;-74
2023/05/06 06:14:36;;;;;;;;;;;;;;;4.58;46.19;100450.75;5072275;28;20312;-78
2023/05/06 06:17:03;;;;;;;;;;;;;;;4.44;46.67;100447.28;5068864;28;20475;-75
2023/05/06 06:19:29;;;;;;;;;;;;;;;4.19;46.86;100449.94;5054143;28;19924;-75
2023/05/06 06:21:56;;;;;;;;;;;;;;;3.98;47.00;100460.03;5067590;28;19928;-76
2023/05/06 06:24:23;;;;;;;;;;;;;;;3.71;47.25;100454.72;5080751;28;20377;-76
2023/05/06 06:26:49;;;;;;;;;;;;;;;3.68;47.70;100456.00;5075825;28;20486;-74
2023/05/06 06:29:15;;;;;;;;;;;;;;;3.96;47.30;100456.72;5072517;28;19928;-76
2023/05/06 06:31:41;;;;;;;;;;;;;;;4.06;46.85;100432.72;5041558;28;19924;-76
2023/05/06 06:34:11;;;;;;;;;;;;;;;4.49;46.15;100458.31;5106979;28;20267;-76
2023/05/06 06:36:43;;;;;;;;;;;;;;;4.65;45.85;100465.06;5115137;28;19924;-77
2023/05/06 06:39:10;;;;;;;;;;;;;;;4.81;45.59;100469.13;5066989;28;20382;-76
2023/05/06 06:41:36;;;;;;;;;;;;;;;4.91;45.32;100468.63;5103404;28;20425;-76
2023/05/06 06:44:02;;;;;;;;;;;;;;;4.92;45.13;100467.56;5107809;28;19924;-76
2023/05/06 06:46:28;;;;;;;;;;;;;;;4.84;45.26;100467.88;5097569;28;19924;-76
2023/05/06 06:48:54;;;;;;;;;;;;;;;4.92;44.92;100472.19;5111807;28;19907;-76
2023/05/06 06:51:21;;;;;;;;;;;;;;;4.96;44.31;100476.09;5095696;28;19928;-76
2023/05/06 06:53:48;;;;;;;;;;;;;;;4.87;44.24;100488.25;5115586;28;20275;-76
2023/05/06 06:56:14;;;;;;;;;;;;;;;4.63;44.78;100480.72;5086580;28;20390;-76
2023/05/06 06:58:41;;;;;;;;;;;;;;;4.72;44.91;100485.88;5087768;27;19969;-76
2023/05/06 07:01:07;;;;;;;;;;;;;;;4.96;44.36;100489.66;5113227;27;19966;-76
2023/05/06 07:03:32;;;;;;;;;;;;;;;5.00;43.89;100485.44;5121849;27;19930;-75
2023/05/06 07:05:58;;;;;;;;;;;;;;;5.20;43.04;100495.28;5117776;27;19930;-75
2023/05/06 07:08:25;;;;;;;;;;;;;;;5.50;42.28;100497.31;5110125;27;19923;-74
2023/05/06 07:10:52;;;;;;;;;;;;;;;5.73;41.72;100495.84;5109616;27;19923;-75
2023/05/06 07:13:19;;;;;;;;;;;;;;;5.53;42.09;100496.84;5111653;27;19924;-74
2023/05/06 07:15:45;;;;;;;;;;;;;;;5.28;42.97;100500.44;5116163;27;20028;-74
2023/05/06 07:18:11;;;;;;;;;;;;;;;5.04;43.76;100488.56;5117049;27;19962;-74
2023/05/06 07:20:36;;;;;;;;;;;;;;;4.94;44.18;100508.03;5082317;28;20356;-76
2023/05/06 07:23:02;;;;;;;;;;;;;;;4.89;44.32;100514.09;5096811;28;19927;-76
2023/05/06 07:25:30;;;;;;;;;;;;;;;4.89;44.38;100515.97;5098795;28;20425;-76
2023/05/06 07:27:56;;;;;;;;;;;;;;;4.77;44.61;100513.97;5095520;28;20204;-76
2023/05/06 07:30:21;;;;;;;;;;;;;;;4.63;44.77;100515.09;5108451;27;20038;-76
2023/05/06 07:32:47;;;;;;;;;;;;;;;4.83;44.26;100517.66;5096435;28;20052;-77
2023/05/06 07:35:13;;;;;;;;;;;;;;;5.09;43.63;100513.09;5097533;27;19930;-76
2023/05/06 07:37:39;;;;;;;;;;;;;;;5.18;43.19;100513.66;5116463;27;19924;-75
2023/05/06 07:40:06;;;;;;;;;;;;;;;5.09;43.36;100519.38;5117404;27;20026;-76
2023/05/06 07:42:33;;;;;;;;;;;;;;;5.10;43.24;100529.16;5121759;27;19927;-76
2023/05/06 07:44:59;;;;;;;;;;;;;;;5.29;42.55;100522.94;5117918;27;19976;-76
2023/05/06 07:47:26;;;;;;;;;;;;;;;5.61;41.61;100529.13;5115667;27;19927;-76
2023/05/06 07:49:52;;;;;;;;;;;;;;;5.97;40.77;100518.53;5094090;28;19928;-76
2023/05/06 07:52:18;;;;;;;;;;;;;;;6.13;40.17;100521.72;5096281;28;19981;-74
2023/05/06 07:54:44;;;;;;;;;;;;;;;6.46;39.61;100523.19;5090813;28;19928;-74
2023/05/06 07:57:10;;;;;;;;;;;;;;;6.51;39.12;100529.59;5098222;27;19923;-74
2023/05/06 07:59:37;;;;;;;;;;;;;;;6.29;39.83;100518.38;5114292;27;19928;-74
2023/05/06 08:02:03;;;;;;;;;;;;;;;6.32;40.08;100515.22;5081987;27;19934;-74
2023/05/06 08:04:29;;;;;;;;;;;;;;;6.30;39.81;100530.06;5116676;27;19923;-75
2023/05/06 08:06:55;;;;;;;;;;;;;;;6.17;39.50;100510.19;5095901;28;19924;-75
2023/05/06 08:09:21;;;;;;;;;;;;;;;5.84;39.25;100521.38;5109814;27;20436;-74
2023/05/06 08:11:47;;;;;;;;;;;;;;;5.92;39.16;100519.22;5103674;28;19930;-74
2023/05/06 08:14:12;;;;;;;;;;;;;;;6.20;39.12;100517.03;5112942;27;19923;-75
2023/05/06 08:16:40;;;;;;;;;;;;;;;7.64;36.91;100519.84;5104880;27;19927;-76
2023/05/06 08:19:06;;;;;;;;;;;;;;;8.58;34.80;100527.25;5116792;27;19927;-77
2023/05/06 08:21:31;;;;;;;;;;;;;;;8.90;34.37;100505.75;5121363;27;19951;-76
2023/05/06 08:23:57;;;;;;;;;;;;;;;8.38;34.75;100509.41;5112006;27;19923;-77
2023/05/06 08:26:23;;;;;;;;;;;;;;;8.35;35.05;100515.31;5094596;27;19951;-76
2023/05/06 08:28:49;;;;;;;;;;;;;;;8.28;34.73;100499.13;5065204;27;19923;-76
2023/05/06 08:31:15;;;;;;;;;;;;;;;7.93;35.89;100524.53;5111305;27;20073;-76
2023/05/06 08:33:42;;;;;;;;;;;;;;;7.57;36.82;100519.16;5090782;28;20592;-76
2023/05/06 08:36:08;;;;;;;;;;;;;;;7.20;37.48;100517.47;5095188;28;19923;-75
2023/05/06 08:38:33;;;;;;;;;;;;;;;6.77;38.08;100524.00;5099284;28;19924;-75
2023/05/06 08:41:02;;;;;;;;;;;;;;;6.56;38.59;100526.19;5091600;28;19923;-74
2023/05/06 08:43:30;;;;;;;;;;;;;;;6.69;38.45;100527.03;5068164;28;19948;-74
2023/05/06 08:45:56;;;;;;;;;;;;;;;7.33;37.06;100524.59;5087770;28;19935;-74
2023/05/06 08:48:22;;;;;;;;;;;;;;;8.27;35.81;100518.44;5094098;28;19931;-74
2023/05/06 08:50:51;;;;;;;;;;;;;;;9.72;33.16;100523.63;5072209;28;19946;-76
2023/05/06 08:53:17;;;;;;;;;;;;;;;10.61;30.43;100502.63;5078914;28;19928;-74
2023/05/06 08:55:43;;;;;;;;;;;;;;;9.76;30.66;100524.81;5088746;28;19992;-74
2023/05/06 08:58:10;;;;;;;;;;;;;;;9.90;29.94;100536.19;5093130;28;19965;-75
2023/05/06 09:00:36;;;;;;;;;;;;;;;11.03;28.67;100509.31;5074257;28;19928;-75
2023/05/06 09:03:02;;;;;;;;;;;;;;;11.48;27.92;100511.84;5093225;28;19924;-74
2023/05/06 09:05:28;;;;;;;;;;;;;;;10.59;29.00;100521.19;5087579;28;20363;-75
2023/05/06 09:07:55;;;;;;;;;;;;;;;9.45;30.47;100516.16;5100170;28;19924;-75
2023/05/06 09:10:21;;;;;;;;;;;;;;;8.99;31.35;100517.09;5089343;28;19935;-74
2023/05/06 09:12:47;;;;;;;;;;;;;;;8.79;31.89;100518.34;5090544;28;19942;-75
2023/05/06 09:15:13;;;;;;;;;;;;;;;8.50;32.66;100518.38;5097041;28;19969;-74
2023/05/06 09:17:39;;;;;;;;;;;;;;;8.15;33.15;100523.94;5098905;28;19930;-74
2023/05/06 09:20:08;;;;;;;;;;;;;;;9.57;30.75;100516.06;5091240;28;19928;-76
2023/05/06 09:22:37;;;;;;;;;;;;;;;10.91;28.40;100514.94;5081051;28;19923;-74
2023/05/06 09:25:06;;;;;;;;;;;;;;;12.04;26.35;100514.09;5092293;28;20421;-75
2023/05/06 09:27:32;;;;;;;;;;;;;;;13.33;25.10;100504.44;5089848;28;19927;-75
2023/05/06 09:29:59;;;;;;;;;;;;;;;14.66;23.37;100504.25;5092743;28;19923;-75
2023/05/06 09:32:26;;;;;;;;;;;;;;;14.81;23.01;100508.84;5084650;28;19977;-75
2023/05/06 09:34:52;;;;;;;;;;;;;;;13.27;24.30;100505.56;5086701;28;20205;-75
2023/05/06 09:37:19;;;;;;;;;;;;;;;11.86;26.18;100511.75;5097619;28;20591;-75
2023/05/06 09:39:45;;;;;;;;;;;;;;;10.84;27.42;100518.97;5083536;28;20013;-76
2023/05/06 09:42:13;;;;;;;;;;;;;;;9.86;28.93;100508.53;5095325;28;19954;-76
2023/05/06 09:44:38;;;;;;;;;;;;;;;9.24;30.01;100525.94;5089869;28;19924;-75
2023/05/06 09:47:05;;;;;;;;;;;;;;;9.08;30.53;100515.59;5090702;28;19923;-76
2023/05/06 09:49:30;;;;;;;;;;;;;;;10.95;28.33;100520.72;5093843;28;19930;-76
2023/05/06 09:51:57;;;;;;;;;;;;;;;11.36;27.11;100517.50;5091142;28;19923;-76
2023/05/06 09:54:23;;;;;;;;;;;;;;;11.13;26.73;100524.16;5087866;28;19923;-76
2023/05/06 09:56:49;;;;;;;;;;;;;;;10.98;26.40;100519.38;5076637;28;19924;-76
2023/05/06 09:59:19;;;;;;;;;;;;;;;12.30;25.38;100519.66;5098050;28;19930;-76
2023/05/06 10:01:45;;;;;;;;;;;;;;;12.75;24.64;100516.50;5090753;28;19928;-76
2023/05/06 10:04:12;;;;;;;;;;;;;;;11.75;25.26;100517.22;5101534;28;19930;-77
2023/05/06 10:06:39;;;;;;;;;;;;;;;10.80;26.32;100510.47;5097390;28;19923;-77
2023/05/06 10:09:06;;;;;;;;;;;;;;;10.00;26.61;100517.22;5087493;28;19951;-76
2023/05/06 10:11:32;;;;;;;;;;;;;;;9.72;27.00;100518.19;5087797;28;19923;-76
2023/05/06 10:13:59;;;;;;;;;;;;;;;10.39;26.46;100515.47;5080459;28;19924;-76
2023/05/06 10:16:26;;;;;;;;;;;;;;;11.75;24.42;100519.94;5096191;28;19924;-76
2023/05/06 10:18:54;;;;;;;;;;;;;;;11.30;24.38;100516.63;5089817;28;19923;-76
2023/05/06 10:21:23;;;;;;;;;;;;;;;10.44;25.36;100518.28;5094540;28;19923;-77
2023/05/06 10:23:51;;;;;;;;;;;;;;;10.15;25.57;100518.50;5094005;28;19924;-76
2023/05/06 10:26:18;;;;;;;;;;;;;;;11.15;24.85;100521.97;5094875;28;19924;-76
2023/05/06 10:28:48;;;;;;;;;;;;;;;13.73;21.67;100505.47;5098467;28;20095;-76
2023/05/06 10:31:14;;;;;;;;;;;;;;;14.81;20.59;100506.09;5092153;28;19924;-76
2023/05/06 10:33:44;;;;;;;;;;;;;;;15.50;19.56;100508.00;5060075;28;20046;-76
2023/05/06 10:36:15;;;;;;;;;;;;;;;15.08;19.67;100504.00;5102236;28;19977;-74
2023/05/06 10:38:42;;;;;;;;;;;;;;;14.05;20.11;100511.72;5096865;28;19931;-75
2023/05/06 10:41:08;;;;;;;;;;;;;;;12.29;21.64;100508.97;5095293;28;19924;-74
2023/05/06 10:43:38;;;;;;;;;;;;;;;13.31;20.56;100496.47;5093275;28;19923;-73
2023/05/06 10:46:05;;;;;;;;;;;;;;;14.91;19.13;100502.47;5088082;28;19923;-76
2023/05/06 10:48:31;;;;;;;;;;;;;;;16.33;17.90;100509.03;5078218;28;19923;-76
2023/05/06 10:51:18;;;;;;;;;;;;;;;16.78;17.17;100500.38;5095173;28;20030;-76
2023/05/06 10:54:03;;;;;;;;;;;;;;;14.72;19.05;100496.81;5088230;28;19924;-75
2023/05/06 10:56:29;;;;;;;;;;;;;;;13.05;21.24;100526.69;5099398;28;19923;-75
2023/05/06 10:58:56;;;;;;;;;;;;;;;11.95;22.59;100498.41;5088847;28;19967;-76
2023/05/06 11:01:24;;;;;;;;;;;;;;;10.58;24.06;100510.53;5096917;27;20084;-75
2023/05/06 11:03:51;;;;;;;;;;;;;;;9.88;25.17;100511.03;5099098;28;19927;-76
2023/05/06 11:06:33;;;;;;;;;;;;;;;9.55;25.79;100519.03;5095565;28;19927;-74
2023/05/06 11:09:00;;;;;;;;;;;;;;;9.81;25.29;100515.84;5091728;28;20048;-73
2023/05/06 11:11:44;;;;;;;;;;;;;;;10.27;24.18;100519.16;5094540;28;19976;-74
2023/05/06 11:14:12;;;;;;;;;;;;;;;10.33;24.00;100514.59;5093311;28;19959;-74
2023/05/06 11:16:47;;;;;;;;;;;;;;;10.41;23.99;100519.63;5089855;28;19966;-74
2023/05/06 11:19:17;;;;;;;;;;;;;;;10.70;24.29;100524.03;5093229;28;20398;-74
2023/05/06 11:21:43;;;;;;;;;;;;;;;10.86;24.68;100523.09;5091184;28;19923;-74
2023/05/06 11:24:09;;;;;;;;;;;;;;;13.77;22.10;100526.94;5087010;28;19930;-74
2023/05/06 11:26:35;;;;;;;;;;;;;;;16.23;19.53;100512.75;5093411;28;20394;-74
2023/05/06 11:29:03;;;;;;;;;;;;;;;17.10;18.46;100507.91;5096559;28;19938;-74
2023/05/06 11:31:36;;;;;;;;;;;;;;;16.81;17.69;100522.69;5076815;28;19954;-74
2023/05/06 11:34:05;;;;;;;;;;;;;;;15.03;19.39;100511.16;5095318;28;19923;-74
2023/05/06 11:36:32;;;;;;;;;;;;;;;13.70;20.91;100511.53;5092358;28;20030;-74
2023/05/06 11:39:04;;;;;;;;;;;;;;;12.47;21.27;100496.69;4739794;28;10000519;-73
2023/05/06 11:41:29;;;;;;;;;;;;;;;11.28;22.33;100513.31;5089862;28;19931;-73
2023/05/06 11:43:55;;;;;;;;;;;;;;;10.82;22.85;100507.47;5100435;28;19924;-73
2023/05/06 11:46:22;;;;;;;;;;;;;;;10.14;23.17;100523.13;5089956;28;19951;-72
2023/05/06 11:48:50;;;;;;;;;;;;;;;9.86;23.65;100515.94;5093357;28;20529;-73
2023/05/06 11:51:20;;;;;;;;;;;;;;;10.92;23.02;100522.06;5073926;28;20458;-73
2023/05/06 11:53:46;;;;;;;;;;;;;;;11.23;22.70;100523.41;5082662;28;19923;-73
2023/05/06 11:56:11;;;;;;;;;;;;;;;10.67;23.21;100519.09;5090172;28;19928;-73
2023/05/06 11:58:37;;;;;;;;;;;;;;;10.21;23.90;100510.06;5087566;28;19924;-73
2023/05/06 12:01:03;;;;;;;;;;;;;;;9.87;24.17;100509.38;5090205;28;19967;-73
2023/05/06 12:03:30;;;;;;;;;;;;;;;9.71;24.56;100514.63;5092311;28;20009;-73
2023/05/06 12:05:57;;;;;;;;;;;;;;;9.91;24.75;100513.25;5117632;27;19959;-73
2023/05/06 12:08:24;;;;;;;;;;;;;;;10.11;24.40;100515.44;5096337;28;19924;-73
2023/05/06 12:10:50;;;;;;;;;;;;;;;10.46;24.14;100507.94;5092648;28;19935;-73
2023/05/06 12:13:16;;;;;;;;;;;;;;;11.47;22.81;100516.47;5083855;28;19928;-73
2023/05/06 12:15:42;;;;;;;;;;;;;;;12.22;22.40;100511.97;5094270;28;20008;-73
2023/05/06 12:18:08;;;;;;;;;;;;;;;11.22;23.38;100511.66;5086055;28;19938;-73
2023/05/06 12:20:34;;;;;;;;;;;;;;;10.38;24.09;100505.63;5083105;28;20078;-73
2023/05/06 12:23:08;;;;;;;;;;;;;;;9.78;24.04;100518.00;5087930;28;19968;-73
2023/05/06 12:25:34;;;;;;;;;;;;;;;9.47;24.24;100519.47;5097325;28;19963;-73
2023/05/06 12:28:00;;;;;;;;;;;;;;;9.46;24.42;100515.91;5092902;28;19953;-72
2023/05/06 12:30:30;;;;;;;;;;;;;;;9.83;23.92;100513.69;5089130;28;19928;-72
2023/05/06 12:32:56;;;;;;;;;;;;;;;10.19;22.91;100517.69;5098322;27;19934;-73
2023/05/06 12:35:25;;;;;;;;;;;;;;;9.99;23.18;100514.72;5110497;27;20006;-73
2023/05/06 12:37:51;;;;;;;;;;;;;;;10.19;23.30;100525.91;5096656;27;19935;-73
2023/05/06 12:40:18;;;;;;;;;;;;;;;10.17;23.60;100525.31;5111320;27;19923;-73
2023/05/06 12:42:52;;;;;;;;;;;;;;;10.35;24.39;100529.66;5100014;27;19962;-73